createdAt,value
2023-04-18T00:01:47.933Z,1.55
2023-04-18T00:04:19.332Z,1.88
2023-04-18T00:06:50.535Z,1.30
2023-04-18T00:09:18.803Z,1.50
2023-04-18T00:11:47.404Z,1.70
2023-04-18T00:14:15.844Z,1.40
2023-04-18T00:16:44.216Z,1.80
2023-04-18T00:19:12.384Z,1.75
2023-04-18T00:21:45.683Z,1.60
2023-04-18T00:24:14.070Z,2.03
2023-04-18T00:26:42.511Z,1.80
2023-04-18T00:29:10.733Z,1.50
2023-04-18T00:31:39.271Z,1.88
2023-04-18T00:34:07.502Z,1.63
2023-04-18T00:36:35.762Z,1.80
2023-04-18T00:39:04.178Z,1.60
2023-04-18T00:41:32.386Z,1.90
2023-04-18T00:44:00.592Z,1.50
2023-04-18T00:46:28.919Z,2.30
2023-04-18T00:48:57.229Z,1.55
2023-04-18T00:51:26.442Z,2.08
2023-04-18T00:53:55.478Z,2.92
2023-04-18T00:56:24.765Z,2.10
2023-04-18T00:58:53.339Z,1.90
2023-04-18T01:01:22.244Z,1.80
2023-04-18T01:03:50.731Z,1.65
2023-04-18T01:06:19.474Z,2.70
2023-04-18T01:08:48.329Z,1.90
2023-04-18T01:11:16.519Z,1.30
2023-04-18T01:13:44.737Z,1.42
2023-04-18T01:16:13.001Z,1.40
2023-04-18T01:18:41.760Z,1.25
2023-04-18T01:21:10.135Z,1.35
2023-04-18T01:23:38.709Z,1.30
2023-04-18T01:26:07.034Z,1.10
2023-04-18T01:28:37.982Z,1.10
2023-04-18T01:31:06.749Z,1.55
2023-04-18T01:33:34.993Z,1.23
2023-04-18T01:36:03.359Z,1.30
2023-04-18T01:38:32.056Z,1.40
2023-04-18T01:41:00.280Z,1.33
2023-04-18T01:43:28.543Z,1.48
2023-04-18T01:45:56.742Z,1.67
2023-04-18T01:48:24.974Z,1.30
2023-04-18T01:50:53.222Z,1.00
2023-04-18T01:53:21.380Z,1.33
2023-04-18T01:55:51.504Z,1.60
2023-04-18T01:58:23.946Z,1.20
2023-04-18T02:00:56.123Z,1.05
2023-04-18T02:03:24.947Z,1.27
2023-04-18T02:05:53.383Z,1.35
2023-04-18T02:08:21.550Z,1.08
2023-04-18T02:10:49.748Z,1.48
2023-04-18T02:13:17.975Z,1.25
2023-04-18T02:15:49.732Z,1.27
2023-04-18T02:18:19.084Z,1.40
2023-04-18T02:20:47.851Z,1.40
2023-04-18T02:23:16.017Z,1.42
2023-04-18T02:25:44.396Z,1.45
2023-04-18T02:28:12.650Z,1.35
2023-04-18T02:30:40.810Z,1.83
2023-04-18T02:33:09.154Z,1.55
2023-04-18T02:35:39.555Z,1.45
2023-04-18T02:38:07.746Z,1.27
2023-04-18T02:40:35.927Z,1.30
2023-04-18T02:43:04.106Z,1.42
2023-04-18T02:45:33.606Z,1.70
2023-04-18T02:48:02.387Z,1.60
2023-04-18T02:50:30.635Z,1.52
2023-04-18T02:52:58.853Z,1.80
2023-04-18T02:55:27.743Z,1.55
2023-04-18T02:57:56.817Z,1.55
2023-04-18T03:00:25.280Z,1.60
2023-04-18T03:02:54.084Z,1.83
2023-04-18T03:05:23.041Z,1.80
2023-04-18T03:07:51.300Z,1.55
2023-04-18T03:10:19.559Z,1.30
2023-04-18T03:12:48.533Z,1.50
2023-04-18T03:15:16.795Z,1.27
2023-04-18T03:17:45.077Z,1.55
2023-04-18T03:20:13.701Z,1.48
2023-04-18T03:22:41.900Z,1.55
2023-04-18T03:25:10.582Z,1.50
2023-04-18T03:27:38.852Z,1.48
2023-04-18T03:30:07.767Z,1.50
2023-04-18T03:32:36.004Z,1.48
2023-04-18T03:35:04.703Z,1.60
2023-04-18T03:37:32.937Z,1.40
2023-04-18T03:40:01.261Z,1.33
2023-04-18T03:42:29.376Z,1.58
2023-04-18T03:44:57.651Z,1.77
2023-04-18T03:47:26.395Z,1.90
2023-04-18T03:49:55.246Z,1.50
2023-04-18T03:52:23.516Z,1.42
2023-04-18T03:54:51.784Z,1.27
2023-04-18T03:57:20.014Z,1.73
2023-04-18T03:59:48.316Z,1.38
2023-04-18T04:02:16.812Z,1.27
2023-04-18T04:04:45.141Z,1.27
2023-04-18T04:07:13.883Z,1.30
2023-04-18T04:09:42.104Z,1.63
2023-04-18T04:12:10.331Z,1.40
2023-04-18T04:14:38.540Z,1.65
2023-04-18T04:17:07.087Z,1.60
2023-04-18T04:19:35.318Z,1.83
2023-04-18T04:22:03.459Z,1.60
2023-04-18T04:24:33.710Z,1.50
2023-04-18T04:27:02.581Z,1.60
2023-04-18T04:29:30.882Z,1.42
2023-04-18T04:32:00.384Z,1.40
2023-04-18T04:34:28.644Z,1.77
2023-04-18T04:36:56.908Z,2.03
2023-04-18T04:39:25.093Z,1.60
2023-04-18T04:41:54.271Z,1.55
2023-04-18T04:44:22.785Z,1.52
2023-04-18T04:46:51.463Z,1.30
2023-04-18T04:49:20.274Z,1.70
2023-04-18T04:51:48.434Z,1.67
2023-04-18T04:54:16.933Z,1.05
2023-04-18T04:56:45.394Z,1.40
2023-04-18T04:59:13.671Z,1.83
2023-04-18T05:01:42.021Z,1.50
2023-04-18T05:04:10.468Z,1.85
2023-04-18T05:06:40.259Z,1.50
2023-04-18T05:09:08.676Z,1.20
2023-04-18T05:11:36.864Z,1.38
2023-04-18T05:14:05.053Z,1.40
2023-04-18T05:16:33.822Z,1.60
2023-04-18T05:19:01.997Z,1.88
2023-04-18T05:21:30.479Z,1.60
2023-04-18T05:23:58.957Z,1.52
2023-04-18T05:26:27.269Z,1.38
2023-04-18T05:28:55.723Z,1.90
2023-04-18T05:31:23.956Z,1.40
2023-04-18T05:33:52.177Z,1.67
2023-04-18T05:36:20.409Z,1.90
2023-04-18T05:38:48.625Z,1.67
2023-04-18T05:41:16.875Z,1.75
2023-04-18T05:43:54.239Z,1.50
2023-04-18T05:46:26.351Z,1.40
2023-04-18T05:48:54.532Z,1.80
2023-04-18T05:51:22.824Z,1.38
2023-04-18T05:53:51.149Z,1.75
2023-04-18T05:56:19.409Z,1.48
2023-04-18T05:58:48.658Z,1.52
2023-04-18T06:01:17.134Z,1.90
2023-04-18T06:03:46.003Z,1.73
2023-04-18T06:06:14.624Z,1.80
2023-04-18T06:08:42.913Z,1.60
2023-04-18T06:11:11.155Z,1.35
2023-04-18T06:13:39.507Z,1.52
2023-04-18T06:16:08.241Z,1.55
2023-04-18T06:18:36.520Z,1.90
2023-04-18T06:21:04.701Z,1.60
2023-04-18T06:23:32.910Z,2.00
2023-04-18T06:26:01.134Z,1.50
2023-04-18T06:28:29.437Z,1.80
2023-04-18T06:30:57.619Z,1.67
2023-04-18T06:33:25.975Z,1.98
2023-04-18T06:35:54.266Z,1.80
2023-04-18T06:38:22.472Z,1.83
2023-04-18T06:40:51.108Z,1.90
2023-04-18T06:43:19.331Z,1.67
2023-04-18T06:45:47.839Z,2.00
2023-04-18T06:48:16.439Z,2.10
2023-04-18T06:50:44.809Z,2.00
2023-04-18T06:53:13.152Z,1.70
2023-04-18T06:55:41.740Z,2.20
2023-04-18T06:58:10.949Z,2.42
2023-04-18T07:00:39.138Z,1.80
2023-04-18T07:03:11.297Z,2.22
2023-04-18T07:05:42.961Z,2.10
2023-04-18T07:08:11.287Z,2.35
2023-04-18T07:10:39.435Z,2.30
2023-04-18T07:13:07.584Z,2.30
2023-04-18T07:15:36.854Z,2.20
2023-04-18T07:18:05.272Z,1.70
2023-04-18T07:20:33.507Z,2.10
2023-04-18T07:23:01.662Z,1.90
2023-04-18T07:25:29.944Z,2.00
2023-04-18T07:27:58.171Z,2.20
2023-04-18T07:30:27.202Z,1.80
2023-04-18T07:32:55.560Z,2.00
2023-04-18T07:35:23.826Z,2.00
2023-04-18T07:37:53.610Z,2.00
2023-04-18T07:40:22.329Z,1.55
2023-04-18T07:42:50.523Z,1.90
2023-04-18T07:45:18.763Z,1.95
2023-04-18T07:47:47.077Z,2.15
2023-04-18T07:50:15.221Z,2.00
2023-04-18T07:52:43.415Z,1.90
2023-04-18T07:55:11.669Z,1.67
2023-04-18T07:57:39.879Z,1.95
2023-04-18T08:00:08.721Z,2.25
2023-04-18T08:02:37.458Z,1.90
2023-04-18T08:05:06.105Z,2.15
2023-04-18T08:07:34.371Z,2.00
2023-04-18T08:10:02.605Z,1.90
2023-04-18T08:12:31.042Z,1.92
2023-04-18T08:14:59.315Z,1.90
2023-04-18T08:17:27.642Z,1.75
2023-04-18T08:19:56.066Z,2.13
2023-04-18T08:22:24.260Z,1.92
2023-04-18T08:27:25.652Z,1.80
2023-04-18T08:29:53.817Z,1.75
2023-04-18T08:32:22.040Z,1.80
2023-04-18T08:34:50.317Z,1.98
2023-04-18T08:37:18.547Z,2.05
2023-04-18T08:39:47.114Z,2.00
2023-04-18T08:42:20.093Z,2.25
2023-04-18T08:44:48.739Z,1.98
2023-04-18T08:47:17.282Z,2.22
2023-04-18T08:49:47.725Z,1.75
2023-04-18T08:52:17.838Z,1.63
2023-04-18T08:54:47.924Z,2.10
2023-04-18T08:57:31.704Z,2.28
2023-04-18T09:00:02.397Z,2.10
2023-04-18T09:02:44.634Z,1.75
2023-04-18T09:05:20.363Z,2.22
2023-04-18T09:07:50.725Z,2.30
2023-04-18T09:10:33.609Z,2.10
2023-04-18T09:13:04.137Z,1.70
2023-04-18T09:15:32.737Z,1.90
2023-04-18T09:18:03.678Z,2.00
2023-04-18T09:20:38.571Z,1.90
2023-04-18T09:23:11.757Z,2.10
2023-04-18T09:25:47.545Z,1.80
2023-04-18T09:28:35.881Z,1.90
2023-04-18T09:31:16.252Z,1.80
2023-04-18T09:33:57.540Z,2.03
2023-04-18T09:36:28.434Z,1.70
2023-04-18T09:38:57.224Z,1.52
2023-04-18T09:41:25.691Z,1.20
2023-04-18T09:44:15.138Z,1.80
2023-04-18T09:46:46.577Z,1.33
2023-04-18T09:49:15.503Z,1.40
2023-04-18T09:51:45.703Z,1.20
2023-04-18T09:54:18.217Z,1.17
2023-04-18T09:56:48.172Z,1.10
2023-04-18T09:59:21.777Z,1.20
2023-04-18T10:01:52.241Z,1.20
2023-04-18T10:04:21.119Z,1.08
2023-04-18T10:06:50.102Z,1.00
2023-04-18T10:09:18.992Z,1.17
2023-04-18T10:11:47.596Z,1.35
2023-04-18T10:14:18.345Z,1.10
2023-04-18T10:16:47.540Z,1.15
2023-04-18T10:19:30.834Z,1.25
2023-04-18T10:22:01.805Z,1.27
2023-04-18T10:24:55.031Z,1.38
2023-04-18T10:27:50.557Z,0.98
2023-04-18T10:30:19.616Z,1.40
2023-04-18T10:32:47.940Z,1.17
2023-04-18T10:35:16.337Z,1.23
2023-04-18T10:37:53.640Z,1.30
2023-04-18T10:40:36.899Z,1.20
2023-04-18T10:43:05.142Z,1.65
2023-04-18T10:45:37.166Z,1.60
2023-04-18T10:48:30.393Z,1.70
2023-04-18T10:51:19.383Z,1.45
2023-04-18T10:53:55.162Z,1.50
2023-04-18T10:56:23.414Z,2.15
2023-04-18T10:58:53.152Z,1.27
2023-04-18T11:01:32.474Z,1.13
2023-04-18T11:04:01.728Z,1.45
2023-04-18T11:06:31.995Z,1.30
2023-04-18T11:09:20.377Z,1.38
2023-04-18T11:12:05.086Z,1.60
2023-04-18T11:14:46.686Z,1.27
2023-04-18T11:17:24.378Z,1.40
2023-04-18T11:20:02.920Z,1.17
2023-04-18T11:22:31.910Z,1.30
2023-04-18T11:25:02.521Z,1.33
2023-04-18T11:27:30.850Z,1.40
2023-04-18T11:29:59.114Z,1.15
2023-04-18T11:32:27.460Z,1.35
2023-04-18T11:34:56.596Z,1.65
2023-04-18T11:37:24.828Z,1.63
2023-04-18T11:39:55.811Z,1.40
2023-04-18T11:42:33.290Z,1.42
2023-04-18T11:45:01.959Z,1.50
2023-04-18T11:47:35.109Z,1.60
2023-04-18T11:50:07.657Z,1.30
2023-04-18T11:52:37.425Z,1.33
2023-04-18T11:55:18.379Z,1.77
2023-04-18T11:58:00.703Z,1.75
2023-04-18T12:00:42.734Z,1.30
2023-04-18T12:03:20.402Z,1.40
2023-04-18T12:05:48.855Z,1.48
2023-04-18T12:08:21.819Z,1.33
2023-04-18T12:10:54.230Z,1.20
2023-04-18T12:13:27.619Z,1.40
2023-04-18T12:15:55.829Z,1.52
2023-04-18T12:18:25.590Z,1.40
2023-04-18T12:20:55.222Z,1.50
2023-04-18T12:23:43.616Z,1.48
2023-04-18T12:26:19.064Z,1.30
2023-04-18T12:28:48.884Z,1.65
2023-04-18T12:31:17.039Z,1.50
2023-04-18T12:33:45.318Z,2.03
2023-04-18T12:36:14.176Z,1.50
2023-04-18T12:38:42.350Z,1.65
2023-04-18T12:41:10.611Z,1.55
2023-04-18T12:43:38.763Z,1.40
2023-04-18T12:46:07.056Z,1.48
2023-04-18T12:48:35.232Z,1.70
2023-04-18T12:51:03.472Z,1.88
2023-04-18T12:53:31.675Z,1.65
2023-04-18T12:56:00.033Z,1.90
2023-04-18T12:58:28.162Z,1.50
2023-04-18T13:00:57.007Z,1.98
2023-04-18T13:03:25.455Z,1.80
2023-04-18T13:05:57.008Z,2.08
2023-04-18T13:08:25.271Z,1.88
2023-04-18T13:10:53.408Z,1.92
2023-04-18T13:13:21.682Z,1.80
2023-04-18T13:15:49.830Z,2.05
2023-04-18T13:18:17.984Z,2.00
2023-04-18T13:20:46.315Z,1.70
2023-04-18T13:23:14.503Z,1.70
2023-04-18T13:25:42.690Z,2.20
2023-04-18T13:28:11.058Z,1.80
2023-04-18T13:30:39.230Z,1.85
2023-04-18T13:33:07.516Z,2.20
2023-04-18T13:35:36.952Z,2.50
2023-04-18T13:38:05.172Z,2.20
2023-04-18T13:40:34.301Z,2.17
2023-04-18T13:43:02.509Z,2.35
2023-04-18T13:45:30.673Z,2.70
2023-04-18T13:47:58.986Z,1.90
2023-04-18T13:50:27.302Z,2.10
2023-04-18T13:52:55.583Z,2.33
2023-04-18T13:55:23.845Z,2.10
2023-04-18T13:57:52.092Z,1.98
2023-04-18T14:00:21.180Z,2.38
2023-04-18T14:02:50.885Z,2.22
2023-04-18T14:05:19.531Z,2.10
2023-04-18T14:07:49.323Z,2.55
2023-04-18T14:10:17.604Z,2.22
2023-04-18T14:12:45.842Z,2.42
2023-04-18T14:15:14.068Z,2.17
2023-04-18T14:17:44.116Z,2.22
2023-04-18T14:20:16.401Z,2.08
2023-04-18T14:22:44.640Z,2.10
2023-04-18T14:25:13.243Z,2.40
2023-04-18T14:27:41.554Z,2.45
2023-04-18T14:30:11.041Z,2.65
2023-04-18T14:32:39.300Z,2.60
2023-04-18T14:35:10.226Z,2.75
2023-04-18T14:37:38.493Z,2.50
2023-04-18T14:40:08.955Z,2.58
2023-04-18T14:42:37.179Z,2.47
2023-04-18T14:45:06.052Z,2.53
2023-04-18T14:47:35.460Z,2.33
2023-04-18T14:50:03.719Z,2.70
2023-04-18T14:52:32.108Z,2.50
2023-04-18T14:55:00.354Z,2.63
2023-04-18T14:57:31.203Z,2.70
2023-04-18T14:59:59.437Z,2.53
2023-04-18T15:02:27.870Z,2.58
2023-04-18T15:04:56.723Z,2.70
2023-04-18T15:07:24.991Z,2.88
2023-04-18T15:09:53.227Z,2.63
2023-04-18T15:12:21.622Z,2.30
2023-04-18T15:14:49.858Z,2.80
2023-04-18T15:17:18.183Z,2.45
2023-04-18T15:19:46.520Z,2.90
2023-04-18T15:22:14.785Z,2.58
2023-04-18T15:24:42.961Z,2.90
2023-04-18T15:27:11.664Z,2.80
2023-04-18T15:29:40.069Z,2.53
2023-04-18T15:32:08.346Z,2.60
2023-04-18T15:34:37.034Z,2.65
2023-04-18T15:37:05.496Z,3.17
2023-04-18T15:39:33.759Z,3.08
2023-04-18T15:42:03.058Z,2.85
2023-04-18T15:44:34.147Z,3.53
2023-04-18T15:47:02.627Z,2.90
2023-04-18T15:49:30.839Z,2.80
2023-04-18T15:51:59.066Z,2.40
2023-04-18T15:54:27.249Z,2.70
2023-04-18T15:56:56.388Z,2.38
2023-04-18T15:59:24.785Z,3.30
2023-04-18T16:01:53.065Z,2.80
2023-04-18T16:04:21.323Z,3.00
2023-04-18T16:06:49.493Z,2.85
2023-04-18T16:09:17.629Z,2.75
2023-04-18T16:11:46.170Z,2.50
2023-04-18T16:14:14.868Z,2.63
2023-04-18T16:16:43.390Z,2.35
2023-04-18T16:19:12.224Z,2.30
2023-04-18T16:21:40.432Z,2.53
2023-04-18T16:24:08.835Z,2.60
2023-04-18T16:26:37.110Z,2.53
2023-04-18T16:29:05.336Z,2.17
2023-04-18T16:31:35.242Z,2.53
2023-04-18T16:34:04.157Z,2.63
2023-04-18T16:36:35.551Z,2.03
2023-04-18T16:39:03.818Z,2.75
2023-04-18T16:41:32.084Z,2.13
2023-04-18T16:44:00.315Z,2.58
2023-04-18T16:46:32.185Z,2.10
2023-04-18T16:49:02.290Z,2.10
2023-04-18T16:51:30.673Z,2.30
2023-04-18T16:53:58.919Z,2.50
2023-04-18T16:56:27.146Z,2.30
2023-04-18T16:58:55.367Z,2.40
2023-04-18T17:01:23.575Z,2.90
2023-04-18T17:03:52.338Z,2.30
2023-04-18T17:06:20.628Z,2.45
2023-04-18T17:08:49.810Z,2.10
2023-04-18T17:11:18.045Z,1.95
2023-04-18T17:13:46.639Z,2.35
2023-04-18T17:16:14.957Z,2.42
2023-04-18T17:18:43.185Z,2.40
2023-04-18T17:21:14.171Z,2.58
2023-04-18T17:23:43.238Z,2.22
2023-04-18T17:26:11.426Z,2.00
2023-04-18T17:28:39.827Z,1.95
2023-04-18T17:31:08.369Z,2.08
2023-04-18T17:33:36.684Z,2.13
2023-04-18T17:36:07.111Z,1.90
2023-04-18T17:38:35.316Z,2.05
2023-04-18T17:41:05.449Z,1.73
2023-04-18T17:43:33.626Z,2.00
2023-04-18T17:46:04.359Z,2.05
2023-04-18T17:48:33.336Z,1.90
2023-04-18T17:51:01.917Z,2.17
2023-04-18T17:53:32.007Z,1.80
2023-04-18T17:56:00.757Z,2.15
2023-04-18T17:58:29.525Z,1.75
2023-04-18T18:00:57.733Z,1.70
2023-04-18T18:03:26.191Z,1.83
2023-04-18T18:05:55.770Z,2.30
2023-04-18T18:08:24.127Z,1.88
2023-04-18T18:10:52.381Z,1.95
2023-04-18T18:13:20.610Z,1.80
2023-04-18T18:15:49.080Z,2.00
2023-04-18T18:18:17.474Z,1.70
2023-04-18T18:20:45.809Z,1.52
2023-04-18T18:23:14.034Z,1.65
2023-04-18T18:25:42.452Z,1.85
2023-04-18T18:28:10.601Z,1.60
2023-04-18T18:30:39.024Z,1.88
2023-04-18T18:33:07.282Z,1.70
2023-04-18T18:35:35.899Z,2.15
2023-04-18T18:38:04.227Z,1.95
2023-04-18T18:40:32.498Z,1.60
2023-04-18T18:43:00.632Z,1.88
2023-04-18T18:45:28.878Z,1.50
2023-04-18T18:47:57.177Z,1.63
2023-04-18T18:50:25.479Z,1.55
2023-04-18T18:52:53.810Z,1.40
2023-04-18T18:55:22.098Z,1.40
2023-04-18T18:57:50.281Z,1.70
2023-04-18T19:00:18.635Z,1.55
2023-04-18T19:02:47.467Z,1.85
2023-04-18T19:05:15.909Z,1.63
2023-04-18T19:07:44.101Z,1.45
2023-04-18T19:10:12.550Z,1.40
2023-04-18T19:12:40.825Z,1.30
2023-04-18T19:15:09.830Z,1.40
2023-04-18T19:17:38.093Z,1.30
2023-04-18T19:20:06.819Z,1.38
2023-04-18T19:22:35.053Z,1.50
2023-04-18T19:25:04.008Z,1.20
2023-04-18T19:27:32.284Z,1.33
2023-04-18T19:30:00.484Z,1.60
2023-04-18T19:32:28.984Z,1.40
2023-04-18T19:34:57.139Z,1.60
2023-04-18T19:37:25.388Z,1.30
2023-04-18T19:39:53.584Z,1.52
2023-04-18T19:42:21.839Z,1.25
2023-04-18T19:44:50.039Z,1.40
2023-04-18T19:47:18.313Z,1.60
2023-04-18T19:49:46.708Z,1.63
2023-04-18T19:52:14.963Z,1.80
2023-04-18T19:54:43.137Z,1.50
2023-04-18T19:57:11.402Z,1.50
2023-04-18T19:59:39.544Z,2.00
2023-04-18T20:02:07.749Z,1.98
2023-04-18T20:04:37.316Z,1.90
2023-04-18T20:07:05.768Z,2.00
2023-04-18T20:09:33.962Z,1.98
2023-04-18T20:12:02.910Z,1.70
2023-04-18T20:14:31.236Z,1.60
2023-04-18T20:16:59.530Z,1.80
2023-04-18T20:19:27.775Z,1.83
2023-04-18T20:21:56.051Z,1.73
2023-04-18T20:24:24.596Z,1.70
2023-04-18T20:26:52.811Z,1.70
2023-04-18T20:29:21.077Z,1.98
2023-04-18T20:31:49.239Z,1.70
2023-04-18T20:34:17.476Z,1.20
2023-04-18T20:36:47.371Z,1.23
2023-04-18T20:39:15.903Z,1.15
2023-04-18T20:41:51.578Z,1.67
2023-04-18T20:44:23.030Z,1.70
2023-04-18T20:46:55.737Z,1.77
2023-04-18T20:49:24.057Z,1.77
2023-04-18T20:51:52.232Z,1.70
2023-04-18T20:54:20.488Z,1.65
2023-04-18T20:56:49.172Z,1.50
2023-04-18T20:59:17.309Z,1.85
2023-04-18T21:01:46.032Z,1.50
2023-04-18T21:04:14.757Z,1.63
2023-04-18T21:06:43.594Z,1.63
2023-04-18T21:09:11.855Z,1.23
2023-04-18T21:11:40.046Z,1.42
2023-04-18T21:14:08.355Z,1.40
2023-04-18T21:16:37.756Z,1.60
2023-04-18T21:19:07.324Z,1.80
2023-04-18T21:21:36.348Z,1.80
2023-04-18T21:24:04.712Z,1.88
2023-04-18T21:26:32.997Z,1.75
2023-04-18T21:29:03.434Z,1.77
2023-04-18T21:31:33.835Z,1.80
2023-04-18T21:34:04.232Z,1.65
2023-04-18T21:36:32.870Z,1.50
2023-04-18T21:39:01.994Z,1.70
2023-04-18T21:41:30.268Z,1.60
2023-04-18T21:43:58.448Z,1.50
2023-04-18T21:46:26.781Z,1.50
2023-04-18T21:48:54.994Z,1.70
2023-04-18T21:51:23.339Z,1.48
2023-04-18T21:53:51.514Z,1.40
2023-04-18T21:56:19.753Z,1.67
2023-04-18T21:58:48.547Z,1.63
2023-04-18T22:01:16.735Z,1.10
2023-04-18T22:03:45.151Z,1.42
2023-04-18T22:06:14.146Z,1.30
2023-04-18T22:08:42.945Z,1.58
2023-04-18T22:11:12.422Z,1.30
2023-04-18T22:13:40.675Z,0.95
2023-04-18T22:16:10.251Z,1.05
2023-04-18T22:18:38.633Z,1.40
2023-04-18T22:21:07.534Z,1.30
2023-04-18T22:23:35.689Z,1.27
2023-04-18T22:26:03.964Z,1.05
2023-04-18T22:28:33.168Z,0.93
2023-04-18T22:31:01.459Z,1.40
2023-04-18T22:33:29.837Z,1.30
2023-04-18T22:35:58.225Z,1.20
2023-04-18T22:38:26.716Z,1.40
2023-04-18T22:40:55.035Z,1.25
2023-04-18T22:43:25.709Z,1.30
2023-04-18T22:45:54.153Z,1.10
2023-04-18T22:48:22.400Z,1.05
2023-04-18T22:50:50.694Z,1.00
2023-04-18T22:53:18.973Z,0.82
2023-04-18T22:55:47.477Z,1.23
2023-04-18T22:58:15.757Z,1.27
2023-04-18T23:00:43.998Z,1.58
2023-04-18T23:03:12.602Z,1.20
2023-04-18T23:05:42.241Z,1.25
2023-04-18T23:08:12.626Z,1.17
2023-04-18T23:10:40.890Z,1.40
2023-04-18T23:13:09.242Z,1.00
2023-04-18T23:15:37.487Z,1.20
2023-04-18T23:18:05.830Z,1.60
2023-04-18T23:20:34.133Z,1.10
2023-04-18T23:23:02.379Z,1.25
2023-04-18T23:25:34.372Z,1.13
2023-04-18T23:28:02.685Z,1.30
2023-04-18T23:30:31.047Z,1.20
2023-04-18T23:32:59.268Z,1.15
2023-04-18T23:35:29.376Z,1.10
2023-04-18T23:37:57.999Z,1.40
2023-04-18T23:40:26.587Z,1.10
2023-04-18T23:42:54.853Z,1.38
2023-04-18T23:45:25.160Z,1.30
2023-04-18T23:47:53.671Z,1.30
2023-04-18T23:50:22.082Z,1.20
2023-04-18T23:52:50.265Z,1.38
2023-04-18T23:55:18.648Z,1.48
2023-04-18T23:57:46.852Z,1.30
